createdAt,value
2022-08-22T00:02:33.639Z,16.35
2022-08-22T00:03:12.559Z,17.03
2022-08-22T00:06:03.227Z,16.37
2022-08-22T00:09:20.516Z,16.35
2022-08-22T00:12:35.017Z,16.26
2022-08-22T00:16:08.576Z,16.21
2022-08-22T00:19:41.619Z,16.09
2022-08-22T00:23:06.941Z,15.97
2022-08-22T00:26:21.092Z,15.90
2022-08-22T00:29:48.096Z,15.82
2022-08-22T00:32:59.000Z,15.85
2022-08-22T00:36:28.271Z,15.87
2022-08-22T00:39:42.266Z,15.89
2022-08-22T00:43:05.718Z,15.87
2022-08-22T00:46:25.953Z,15.81
2022-08-22T00:50:19.684Z,15.76
2022-08-22T00:53:39.597Z,15.68
2022-08-22T00:56:41.564Z,15.63
2022-08-22T01:00:11.338Z,15.60
2022-08-22T01:03:31.043Z,15.57
2022-08-22T01:07:04.668Z,15.58
2022-08-22T01:10:29.091Z,15.55
2022-08-22T01:13:49.719Z,15.52
2022-08-22T01:17:26.677Z,15.54
2022-08-22T01:20:59.160Z,15.63
2022-08-22T01:24:18.858Z,15.64
2022-08-22T01:27:58.987Z,15.66
2022-08-22T01:31:46.788Z,15.75
2022-08-22T01:35:16.462Z,15.79
2022-08-22T01:38:36.694Z,15.87
2022-08-22T01:42:02.748Z,15.91
2022-08-22T01:45:34.845Z,15.96
2022-08-22T01:48:45.973Z,15.99
2022-08-22T01:52:03.996Z,16.03
2022-08-22T01:55:36.453Z,15.99
2022-08-22T01:58:45.556Z,15.92
2022-08-22T02:02:00.271Z,15.89
2022-08-22T02:05:18.335Z,15.84
2022-08-22T02:08:47.178Z,15.81
2022-08-22T02:12:22.808Z,15.82
2022-08-22T02:15:41.725Z,15.83
2022-08-22T02:19:02.712Z,15.84
2022-08-22T02:22:27.000Z,15.84
2022-08-22T02:25:34.347Z,15.80
2022-08-22T02:28:57.491Z,15.79
2022-08-22T02:32:10.449Z,15.77
2022-08-22T02:35:12.383Z,15.76
2022-08-22T02:38:38.875Z,15.77
2022-08-22T02:42:17.948Z,15.73
2022-08-22T02:45:28.917Z,15.69
2022-08-22T02:48:39.165Z,15.68
2022-08-22T02:51:56.175Z,15.62
2022-08-22T02:55:08.631Z,15.60
2022-08-22T02:58:45.323Z,15.57
2022-08-22T03:01:48.248Z,15.61
2022-08-22T03:05:00.740Z,15.65
2022-08-22T03:08:29.429Z,15.68
2022-08-22T03:11:38.434Z,15.69
2022-08-22T03:15:07.488Z,15.68
2022-08-22T03:18:12.397Z,15.67
2022-08-22T03:21:32.880Z,15.65
2022-08-22T03:24:49.806Z,15.67
2022-08-22T03:27:59.280Z,15.64
2022-08-22T03:31:17.779Z,15.61
2022-08-22T03:34:22.700Z,15.60
2022-08-22T03:37:35.908Z,15.60
2022-08-22T03:41:07.752Z,15.58
2022-08-22T03:44:12.755Z,15.56
2022-08-22T03:47:45.346Z,15.48
2022-08-22T03:51:22.661Z,15.46
2022-08-22T03:54:33.476Z,15.38
2022-08-22T03:58:27.701Z,15.29
2022-08-22T04:01:52.168Z,15.25
2022-08-22T04:05:28.462Z,15.26
2022-08-22T04:08:57.705Z,15.32
2022-08-22T04:12:04.745Z,15.34
2022-08-22T04:15:43.984Z,15.41
2022-08-22T04:19:17.196Z,15.46
2022-08-22T04:22:48.953Z,15.51
2022-08-22T04:25:58.488Z,15.49
2022-08-22T04:29:27.288Z,15.51
2022-08-22T04:32:47.300Z,15.54
2022-08-22T04:36:04.946Z,15.56
2022-08-22T04:39:23.325Z,15.58
2022-08-22T04:42:34.931Z,15.57
2022-08-22T04:45:47.599Z,15.56
2022-08-22T04:49:07.982Z,15.56
2022-08-22T04:52:12.872Z,15.55
2022-08-22T04:56:07.060Z,15.57
2022-08-22T04:59:17.024Z,15.56
2022-08-22T05:02:22.916Z,15.56
2022-08-22T05:05:36.032Z,15.59
2022-08-22T05:08:40.330Z,15.64
2022-08-22T05:11:43.608Z,15.68
2022-08-22T05:14:51.489Z,15.72
2022-08-22T05:18:08.877Z,15.76
2022-08-22T05:21:13.809Z,15.81
2022-08-22T05:24:31.625Z,15.86
2022-08-22T05:27:38.879Z,15.87
2022-08-22T05:30:42.944Z,15.91
2022-08-22T05:33:50.616Z,15.97
2022-08-22T05:37:05.215Z,16.04
2022-08-22T05:40:29.090Z,16.14
2022-08-22T05:43:36.820Z,16.21
2022-08-22T05:46:44.335Z,16.24
2022-08-22T05:50:02.211Z,16.20
2022-08-22T05:53:26.860Z,16.20
2022-08-22T05:56:38.029Z,16.20
2022-08-22T05:59:44.045Z,16.20
2022-08-22T06:03:03.169Z,16.22
2022-08-22T06:06:20.225Z,16.21
2022-08-22T06:09:25.106Z,16.22
2022-08-22T06:12:46.268Z,16.18
2022-08-22T06:16:05.446Z,16.10
2022-08-22T06:19:19.202Z,16.09
2022-08-22T06:22:27.007Z,16.05
2022-08-22T06:25:34.265Z,16.05
2022-08-22T06:28:54.967Z,16.13
2022-08-22T06:32:00.299Z,16.34
2022-08-22T06:35:13.334Z,16.57
2022-08-22T06:38:16.601Z,16.86
2022-08-22T06:41:21.274Z,17.16
2022-08-22T06:44:35.785Z,17.43
2022-08-22T06:47:50.154Z,17.66
2022-08-22T06:50:57.047Z,18.28
2022-08-22T06:54:02.652Z,18.38
2022-08-22T06:57:06.240Z,18.42
2022-08-22T07:00:13.237Z,18.50
2022-08-22T07:03:38.342Z,18.79
2022-08-22T07:06:47.557Z,19.19
2022-08-22T07:09:51.257Z,19.69
2022-08-22T07:12:56.414Z,20.42
2022-08-22T07:15:59.590Z,20.76
2022-08-22T07:19:01.957Z,20.71
2022-08-22T07:22:22.392Z,20.71
2022-08-22T07:25:25.125Z,21.42
2022-08-22T07:28:51.186Z,22.88
2022-08-22T07:32:10.240Z,22.94
2022-08-22T07:35:23.118Z,23.21
2022-08-22T07:38:31.161Z,24.06
2022-08-22T07:41:46.813Z,25.36
2022-08-22T07:45:16.297Z,25.60
2022-08-22T07:48:26.448Z,26.03
2022-08-22T07:51:36.560Z,25.82
2022-08-22T07:54:59.061Z,26.34
2022-08-22T07:58:04.708Z,27.49
2022-08-22T08:01:10.069Z,28.00
2022-08-22T08:04:17.144Z,28.07
2022-08-22T08:07:23.416Z,27.25
2022-08-22T08:10:34.907Z,26.97
2022-08-22T08:13:42.044Z,27.64
2022-08-22T08:17:01.993Z,27.80
2022-08-22T08:20:12.346Z,27.94
2022-08-22T08:23:15.046Z,26.62
2022-08-22T08:26:30.931Z,26.15
2022-08-22T08:29:33.821Z,26.81
2022-08-22T08:32:37.165Z,28.38
2022-08-22T08:36:02.390Z,27.34
2022-08-22T08:39:28.567Z,27.20
2022-08-22T08:43:20.715Z,27.11
2022-08-22T08:46:50.222Z,26.68
2022-08-22T08:50:44.581Z,27.55
2022-08-22T08:54:07.513Z,28.98
2022-08-22T08:57:45.909Z,27.41
2022-08-22T09:01:11.110Z,28.94
2022-08-22T09:04:37.141Z,27.87
2022-08-22T09:08:15.047Z,28.47
2022-08-22T09:11:29.134Z,29.23
2022-08-22T09:14:52.761Z,29.70
2022-08-22T09:18:30.223Z,30.17
2022-08-22T09:21:51.046Z,30.13
2022-08-22T09:25:38.535Z,30.65
2022-08-22T09:29:13.061Z,28.50
2022-08-22T09:32:27.264Z,28.09
2022-08-22T09:35:56.312Z,29.01
2022-08-22T09:39:17.685Z,29.43
2022-08-22T09:42:44.941Z,29.82
2022-08-22T09:46:15.401Z,29.68
2022-08-22T09:49:35.966Z,27.04
2022-08-22T09:53:08.562Z,26.55
2022-08-22T09:56:22.134Z,25.89
2022-08-22T09:59:47.957Z,24.83
2022-08-22T10:03:23.152Z,24.07
2022-08-22T10:06:30.913Z,24.69
2022-08-22T10:09:47.304Z,27.57
2022-08-22T10:13:32.024Z,27.82
2022-08-22T10:16:51.432Z,27.66
2022-08-22T10:20:25.778Z,28.41
2022-08-22T10:23:48.089Z,28.80
2022-08-22T10:26:54.364Z,29.28
2022-08-22T10:30:10.217Z,28.29
2022-08-22T10:33:42.043Z,27.22
2022-08-22T10:37:46.139Z,27.94
2022-08-22T10:40:59.360Z,28.76
2022-08-22T10:44:18.815Z,28.92
2022-08-22T10:47:28.304Z,29.73
2022-08-22T10:50:38.313Z,29.72
2022-08-22T10:53:59.373Z,29.71
2022-08-22T10:57:22.637Z,29.48
2022-08-22T11:00:50.061Z,28.88
2022-08-22T11:04:12.647Z,28.72
2022-08-22T11:07:37.386Z,28.82
2022-08-22T11:10:59.726Z,28.25
2022-08-22T11:14:27.352Z,28.00
2022-08-22T11:17:54.185Z,27.79
2022-08-22T11:21:11.075Z,28.74
2022-08-22T11:24:53.975Z,27.65
2022-08-22T11:28:29.963Z,27.96
2022-08-22T11:32:05.973Z,28.41
2022-08-22T11:35:22.500Z,29.97
2022-08-22T11:38:45.494Z,29.73
2022-08-22T11:42:06.364Z,29.82
2022-08-22T11:45:16.369Z,28.92
2022-08-22T11:48:59.177Z,28.37
2022-08-22T11:52:13.805Z,28.34
2022-08-22T11:55:18.403Z,28.49
2022-08-22T11:58:28.761Z,28.36
2022-08-22T12:01:40.866Z,28.86
2022-08-22T12:04:52.550Z,30.24
2022-08-22T12:08:05.322Z,28.91
2022-08-22T12:11:10.929Z,28.11
2022-08-22T12:14:26.860Z,27.66
2022-08-22T12:17:55.698Z,27.44
2022-08-22T12:21:21.599Z,27.65
2022-08-22T12:25:03.627Z,28.05
2022-08-22T12:28:15.754Z,27.48
2022-08-22T12:31:59.475Z,27.66
2022-08-22T12:35:40.354Z,28.45
2022-08-22T12:38:56.842Z,28.78
2022-08-22T12:42:17.371Z,28.81
2022-08-22T12:45:28.934Z,28.84
2022-08-22T12:49:08.172Z,28.15
2022-08-22T12:52:29.183Z,27.49
2022-08-22T12:55:55.820Z,28.25
2022-08-22T12:59:20.229Z,29.17
2022-08-22T13:02:29.782Z,28.55
2022-08-22T13:05:40.719Z,28.35
2022-08-22T13:08:45.780Z,27.46
2022-08-22T13:11:52.241Z,27.79
2022-08-22T13:15:06.646Z,28.28
2022-08-22T13:18:30.302Z,27.92
2022-08-22T13:21:38.373Z,28.08
2022-08-22T13:24:56.168Z,27.97
2022-08-22T13:28:03.804Z,28.31
2022-08-22T13:31:08.670Z,28.40
2022-08-22T13:34:39.604Z,27.87
2022-08-22T13:37:50.009Z,27.95
2022-08-22T13:40:54.190Z,28.07
2022-08-22T13:44:05.267Z,28.09
2022-08-22T13:47:21.262Z,29.18
2022-08-22T13:50:52.950Z,29.30
2022-08-22T13:54:11.235Z,28.71
2022-08-22T13:57:28.614Z,28.42
2022-08-22T14:00:58.819Z,28.44
2022-08-22T14:04:28.502Z,28.44
2022-08-22T14:07:48.801Z,28.76
2022-08-22T14:11:24.841Z,28.43
2022-08-22T14:14:33.335Z,28.66
2022-08-22T14:17:42.860Z,28.51
2022-08-22T14:20:47.709Z,29.48
2022-08-22T14:23:53.342Z,29.22
2022-08-22T14:27:05.326Z,28.39
2022-08-22T14:30:22.039Z,27.98
2022-08-22T14:33:40.011Z,27.72
2022-08-22T14:36:48.733Z,28.25
2022-08-22T14:39:59.605Z,28.34
2022-08-22T14:43:15.612Z,28.60
2022-08-22T14:46:36.540Z,28.89
2022-08-22T14:49:57.721Z,28.49
2022-08-22T14:53:24.959Z,28.05
2022-08-22T14:56:29.697Z,28.02
2022-08-22T14:59:45.615Z,27.88
2022-08-22T15:02:49.137Z,27.16
2022-08-22T15:05:59.234Z,27.16
2022-08-22T15:09:07.773Z,27.17
2022-08-22T15:12:34.873Z,27.02
2022-08-22T15:15:52.790Z,26.44
2022-08-22T15:18:57.476Z,26.10
2022-08-22T15:22:19.000Z,25.75
2022-08-22T15:25:21.594Z,25.76
2022-08-22T15:28:26.610Z,25.75
2022-08-22T15:31:46.429Z,26.01
2022-08-22T15:34:52.334Z,26.43
2022-08-22T15:37:56.909Z,26.72
2022-08-22T15:41:36.558Z,26.79
2022-08-22T15:44:44.358Z,26.72
2022-08-22T15:47:52.150Z,27.07
2022-08-22T15:50:57.218Z,27.43
2022-08-22T15:54:13.104Z,27.42
2022-08-22T15:57:34.702Z,27.43
2022-08-22T16:00:45.149Z,27.52
2022-08-22T16:04:07.462Z,27.68
2022-08-22T16:07:26.470Z,27.29
2022-08-22T16:10:34.371Z,26.91
2022-08-22T16:13:40.543Z,27.04
2022-08-22T16:16:56.775Z,27.19
2022-08-22T16:20:07.746Z,27.11
2022-08-22T16:23:12.240Z,27.01
2022-08-22T16:26:39.657Z,26.91
2022-08-22T16:29:42.389Z,26.70
2022-08-22T16:32:53.144Z,26.49
2022-08-22T16:36:15.528Z,26.68
2022-08-22T16:39:37.938Z,26.74
2022-08-22T16:42:44.577Z,26.57
2022-08-22T16:45:47.640Z,26.64
2022-08-22T16:49:00.896Z,26.52
2022-08-22T16:52:21.279Z,26.32
2022-08-22T16:55:29.152Z,26.37
2022-08-22T16:58:50.234Z,26.35
2022-08-22T17:02:18.223Z,26.37
2022-08-22T17:05:55.006Z,26.30
2022-08-22T17:09:03.145Z,26.14
2022-08-22T17:12:30.212Z,26.06
2022-08-22T17:15:59.381Z,26.06
2022-08-22T17:19:17.440Z,25.92
2022-08-22T17:22:37.694Z,25.79
2022-08-22T17:26:17.428Z,25.54
2022-08-22T17:29:58.057Z,25.36
2022-08-22T17:33:35.273Z,25.03
2022-08-22T17:37:03.651Z,24.93
2022-08-22T17:40:30.242Z,24.77
2022-08-22T17:43:55.706Z,24.34
2022-08-22T17:47:25.714Z,24.05
2022-08-22T17:50:40.005Z,23.97
2022-08-22T17:53:50.332Z,23.72
2022-08-22T17:57:13.712Z,23.47
2022-08-22T18:00:22.858Z,23.36
2022-08-22T18:03:33.560Z,23.10
2022-08-22T18:06:38.807Z,22.94
2022-08-22T18:09:51.594Z,22.81
2022-08-22T18:13:04.821Z,22.64
2022-08-22T18:16:20.095Z,22.47
2022-08-22T18:19:39.757Z,22.38
2022-08-22T18:22:49.317Z,22.35
2022-08-22T18:26:07.068Z,22.25
2022-08-22T18:29:33.176Z,22.19
2022-08-22T18:32:47.963Z,22.11
2022-08-22T18:35:55.217Z,21.95
2022-08-22T18:39:20.322Z,21.78
2022-08-22T18:42:39.554Z,21.65
2022-08-22T18:45:47.629Z,21.49
2022-08-22T18:49:14.269Z,21.34
2022-08-22T18:52:28.755Z,21.18
2022-08-22T18:55:53.875Z,20.99
2022-08-22T18:59:13.164Z,20.94
2022-08-22T19:02:40.151Z,20.88
2022-08-22T19:06:19.886Z,20.87
2022-08-22T19:09:40.870Z,20.84
2022-08-22T19:13:03.684Z,20.79
2022-08-22T19:16:47.779Z,20.72
2022-08-22T19:20:01.293Z,20.63
2022-08-22T19:23:34.399Z,20.54
2022-08-22T19:26:44.980Z,20.39
2022-08-22T19:29:53.448Z,20.31
2022-08-22T19:32:59.573Z,20.38
2022-08-22T19:36:12.843Z,20.28
2022-08-22T19:39:54.593Z,20.16
2022-08-22T19:42:56.834Z,20.10
2022-08-22T19:46:01.777Z,20.04
2022-08-22T19:49:06.912Z,19.93
2022-08-22T19:52:54.091Z,19.85
2022-08-22T19:56:30.373Z,19.75
2022-08-22T19:59:54.419Z,19.71
2022-08-22T20:03:09.237Z,19.67
2022-08-22T20:06:44.937Z,19.53
2022-08-22T20:09:50.145Z,19.51
2022-08-22T20:13:03.944Z,19.36
2022-08-22T20:16:43.374Z,19.25
2022-08-22T20:23:28.042Z,19.15
2022-08-22T20:26:30.687Z,19.14
2022-08-22T20:29:36.105Z,19.17
2022-08-22T20:32:50.468Z,19.14
2022-08-22T20:35:55.972Z,19.08
2022-08-22T20:39:02.774Z,19.06
2022-08-22T20:42:12.653Z,19.08
2022-08-22T20:45:20.745Z,19.17
2022-08-22T20:48:23.049Z,19.23
2022-08-22T20:51:28.628Z,19.29
2022-08-22T20:54:34.783Z,19.37
2022-08-22T20:57:52.300Z,19.47
2022-08-22T21:00:57.051Z,19.60
2022-08-22T21:03:59.192Z,19.70
2022-08-22T21:07:01.894Z,19.75
2022-08-22T21:10:26.771Z,19.84
2022-08-22T21:13:34.209Z,19.82
2022-08-22T21:16:36.258Z,19.80
2022-08-22T21:19:38.279Z,19.76
2022-08-22T21:22:40.291Z,19.81
2022-08-22T21:25:59.953Z,19.82
2022-08-22T21:29:13.990Z,19.82
2022-08-22T21:32:36.782Z,19.84
2022-08-22T21:35:39.668Z,19.84
2022-08-22T21:38:48.328Z,19.82
2022-08-22T21:42:07.594Z,19.77
2022-08-22T21:45:25.601Z,19.70
2022-08-22T21:48:35.890Z,19.58
2022-08-22T21:51:42.333Z,19.43
2022-08-22T21:54:44.367Z,19.27
2022-08-22T21:57:46.365Z,19.15
2022-08-22T22:00:52.975Z,19.04
2022-08-22T22:03:55.434Z,18.90
2022-08-22T22:06:57.450Z,18.78
2022-08-22T22:09:59.469Z,18.66
2022-08-22T22:13:01.484Z,18.56
2022-08-22T22:16:07.030Z,18.47
2022-08-22T22:19:09.068Z,18.41
2022-08-22T22:22:13.660Z,18.33
2022-08-22T22:25:41.291Z,18.27
2022-08-22T22:28:42.527Z,18.20
2022-08-22T22:31:44.541Z,18.09
2022-08-22T22:34:46.552Z,17.99
2022-08-22T22:37:48.554Z,17.90
2022-08-22T22:40:50.896Z,17.84
2022-08-22T22:43:54.556Z,17.84
2022-08-22T22:46:58.143Z,17.83
2022-08-22T22:50:00.190Z,17.86
2022-08-22T22:53:02.192Z,17.85
2022-08-22T22:56:06.651Z,17.81
2022-08-22T22:59:13.708Z,17.79
2022-08-22T23:02:20.769Z,17.74
2022-08-22T23:05:22.815Z,17.69
2022-08-22T23:08:24.877Z,17.58
2022-08-22T23:11:30.049Z,17.54
2022-08-22T23:14:33.052Z,17.46
2022-08-22T23:17:35.471Z,17.38
2022-08-22T23:20:37.598Z,17.35
2022-08-22T23:23:39.771Z,17.30
2022-08-22T23:26:42.211Z,17.32
2022-08-22T23:29:44.263Z,17.26
2022-08-22T23:32:46.336Z,17.16
2022-08-22T23:35:48.346Z,17.15
2022-08-22T23:38:52.001Z,17.08
2022-08-22T23:41:54.611Z,16.99
2022-08-22T23:44:56.636Z,16.86
2022-08-22T23:47:58.766Z,16.78
2022-08-22T23:51:00.908Z,16.68
2022-08-22T23:54:04.430Z,16.59
2022-08-22T23:57:12.141Z,16.52
